createdAt,value
2023-04-30T00:01:48.525Z,4.70
2023-04-30T00:04:16.572Z,4.93
2023-04-30T00:06:45.988Z,5.50
2023-04-30T00:09:13.980Z,4.57
2023-04-30T00:11:41.903Z,4.43
2023-04-30T00:14:10.007Z,5.50
2023-04-30T00:16:37.977Z,4.77
2023-04-30T00:19:06.428Z,5.03
2023-04-30T00:21:34.431Z,4.53
2023-04-30T00:24:03.872Z,4.40
2023-04-30T00:26:31.889Z,4.30
2023-04-30T00:28:59.884Z,4.37
2023-04-30T00:31:27.930Z,4.77
2023-04-30T00:33:56.094Z,4.30
2023-04-30T00:36:24.034Z,4.70
2023-04-30T00:38:52.031Z,4.70
2023-04-30T00:41:23.662Z,4.40
2023-04-30T00:43:51.608Z,4.77
2023-04-30T00:46:19.790Z,4.03
2023-04-30T00:48:48.946Z,4.50
2023-04-30T00:51:17.641Z,4.43
2023-04-30T00:53:45.658Z,4.73
2023-04-30T00:56:16.270Z,4.50
2023-04-30T00:58:46.349Z,4.90
2023-04-30T01:01:15.259Z,4.70
2023-04-30T01:03:44.523Z,4.07
2023-04-30T01:06:12.537Z,4.93
2023-04-30T01:08:40.517Z,5.20
2023-04-30T01:11:18.430Z,5.27
2023-04-30T01:13:56.502Z,4.57
2023-04-30T01:16:27.412Z,5.17
2023-04-30T01:19:00.372Z,4.60
2023-04-30T01:21:32.607Z,5.10
2023-04-30T01:24:44.492Z,5.30
2023-04-30T01:27:24.677Z,5.47
2023-04-30T01:29:57.530Z,5.30
2023-04-30T01:32:26.830Z,5.50
2023-04-30T01:34:54.799Z,5.80
2023-04-30T01:37:31.443Z,5.97
2023-04-30T01:40:13.521Z,6.47
2023-04-30T01:42:49.706Z,6.13
2023-04-30T01:45:32.106Z,6.40
2023-04-30T01:48:15.585Z,7.03
2023-04-30T01:50:49.450Z,6.43
2023-04-30T01:53:22.804Z,6.87
2023-04-30T01:55:56.538Z,7.10
2023-04-30T01:58:26.668Z,6.80
2023-04-30T02:00:56.357Z,7.70
2023-04-30T02:03:24.384Z,7.23
2023-04-30T02:05:52.774Z,7.63
2023-04-30T02:08:20.693Z,7.80
2023-04-30T02:10:48.632Z,7.77
2023-04-30T02:13:17.321Z,8.00
2023-04-30T02:15:45.583Z,7.83
2023-04-30T02:18:14.882Z,7.67
2023-04-30T02:20:43.426Z,8.20
2023-04-30T02:23:11.250Z,8.23
2023-04-30T02:25:39.298Z,8.43
2023-04-30T02:28:07.767Z,8.60
2023-04-30T02:30:36.228Z,8.57
2023-04-30T02:33:05.220Z,8.60
2023-04-30T02:35:34.538Z,7.47
2023-04-30T02:38:02.485Z,8.87
2023-04-30T02:40:30.430Z,8.23
2023-04-30T02:42:58.930Z,8.47
2023-04-30T02:45:26.831Z,8.40
2023-04-30T02:47:54.801Z,8.50
2023-04-30T02:50:23.015Z,8.67
2023-04-30T02:52:52.323Z,8.13
2023-04-30T02:55:20.267Z,8.23
2023-04-30T02:57:48.099Z,8.80
2023-04-30T03:00:16.331Z,8.80
2023-04-30T03:02:44.564Z,8.83
2023-04-30T03:05:12.608Z,8.80
2023-04-30T03:07:40.524Z,8.57
2023-04-30T03:10:11.151Z,8.13
2023-04-30T03:12:39.195Z,8.20
2023-04-30T03:15:08.694Z,8.17
2023-04-30T03:17:37.036Z,8.70
2023-04-30T03:20:05.520Z,9.30
2023-04-30T03:22:33.435Z,7.87
2023-04-30T03:25:01.280Z,9.17
2023-04-30T03:27:30.523Z,8.67
2023-04-30T03:29:58.524Z,8.40
2023-04-30T03:32:26.472Z,8.97
2023-04-30T03:34:54.483Z,8.90
2023-04-30T03:37:22.377Z,8.40
2023-04-30T03:39:50.277Z,9.00
2023-04-30T03:42:18.212Z,8.23
2023-04-30T03:44:47.526Z,8.90
2023-04-30T03:47:15.498Z,8.53
2023-04-30T03:49:43.433Z,9.07
2023-04-30T03:52:12.256Z,9.23
2023-04-30T03:54:40.298Z,9.90
2023-04-30T03:57:10.674Z,8.63
2023-04-30T03:59:38.658Z,8.77
2023-04-30T04:02:08.491Z,9.17
2023-04-30T04:04:36.773Z,9.43
2023-04-30T04:07:04.764Z,8.93
2023-04-30T04:09:32.670Z,9.10
2023-04-30T04:12:01.500Z,9.30
2023-04-30T04:14:29.396Z,9.50
2023-04-30T04:16:59.885Z,8.77
2023-04-30T04:19:29.263Z,8.80
2023-04-30T04:21:58.553Z,8.40
2023-04-30T04:24:26.893Z,9.10
2023-04-30T04:26:55.329Z,9.03
2023-04-30T04:29:23.314Z,9.70
2023-04-30T04:31:51.413Z,9.50
2023-04-30T04:34:19.996Z,9.40
2023-04-30T04:36:49.254Z,9.50
2023-04-30T04:39:17.945Z,8.57
2023-04-30T04:41:46.619Z,7.53
2023-04-30T04:44:14.586Z,7.13
2023-04-30T04:46:44.428Z,8.10
2023-04-30T04:49:12.644Z,7.40
2023-04-30T04:51:40.628Z,7.53
2023-04-30T04:54:09.896Z,8.17
2023-04-30T04:56:37.790Z,8.60
2023-04-30T04:59:05.673Z,7.03
2023-04-30T05:01:33.605Z,7.43
2023-04-30T05:04:01.680Z,7.93
2023-04-30T05:06:29.754Z,7.97
2023-04-30T05:08:57.710Z,9.37
2023-04-30T05:11:26.894Z,7.30
2023-04-30T05:13:54.843Z,6.87
2023-04-30T05:16:22.793Z,6.37
2023-04-30T05:18:50.730Z,6.73
2023-04-30T05:21:18.629Z,7.17
2023-04-30T05:23:46.521Z,7.10
2023-04-30T05:26:14.426Z,8.13
2023-04-30T05:28:43.728Z,7.33
2023-04-30T05:31:11.632Z,7.87
2023-04-30T05:33:40.803Z,8.87
2023-04-30T05:36:09.068Z,8.97
2023-04-30T05:38:36.901Z,9.57
2023-04-30T05:41:05.194Z,9.60
2023-04-30T05:43:33.693Z,9.10
2023-04-30T05:46:03.489Z,9.77
2023-04-30T05:48:31.522Z,8.80
2023-04-30T05:50:59.429Z,9.60
2023-04-30T05:53:27.322Z,9.83
2023-04-30T05:55:55.183Z,9.90
2023-04-30T05:58:23.041Z,10.03
2023-04-30T06:00:51.905Z,9.40
2023-04-30T06:03:21.392Z,9.67
2023-04-30T06:05:49.416Z,9.13
2023-04-30T06:08:17.480Z,9.87
2023-04-30T06:10:45.651Z,10.00
2023-04-30T06:13:14.744Z,9.60
2023-04-30T06:15:42.661Z,9.07
2023-04-30T06:18:12.454Z,9.40
2023-04-30T06:20:41.779Z,8.87
2023-04-30T06:23:10.136Z,9.37
2023-04-30T06:25:37.975Z,9.07
2023-04-30T06:28:08.313Z,9.03
2023-04-30T06:30:36.600Z,8.80
2023-04-30T06:33:04.627Z,8.97
2023-04-30T06:35:32.558Z,9.40
2023-04-30T06:38:01.866Z,8.97
2023-04-30T06:40:29.830Z,8.80
2023-04-30T06:42:57.748Z,9.23
2023-04-30T06:45:25.670Z,8.87
2023-04-30T06:47:53.890Z,8.50
2023-04-30T06:50:22.421Z,8.77
2023-04-30T06:52:50.253Z,7.93
2023-04-30T06:55:19.814Z,7.93
2023-04-30T06:57:47.830Z,8.20
2023-04-30T07:00:16.647Z,7.90
2023-04-30T07:02:45.416Z,8.07
2023-04-30T07:05:13.713Z,7.60
2023-04-30T07:07:41.853Z,7.17
2023-04-30T07:10:10.086Z,7.70
2023-04-30T07:12:39.291Z,7.43
2023-04-30T07:15:08.294Z,7.40
2023-04-30T07:17:37.071Z,7.47
2023-04-30T07:20:05.525Z,7.40
2023-04-30T07:22:33.576Z,7.50
2023-04-30T07:25:01.627Z,7.70
2023-04-30T07:27:29.673Z,6.80
2023-04-30T07:29:58.894Z,7.97
2023-04-30T07:32:27.416Z,7.80
2023-04-30T07:34:55.381Z,7.87
2023-04-30T07:37:23.339Z,7.37
2023-04-30T07:39:51.176Z,7.30
2023-04-30T07:42:19.083Z,7.17
2023-04-30T07:44:48.799Z,7.40
2023-04-30T07:47:18.410Z,7.27
2023-04-30T07:49:46.988Z,6.87
2023-04-30T07:52:15.058Z,7.00
2023-04-30T07:54:42.954Z,6.80
2023-04-30T07:57:11.057Z,6.93
2023-04-30T07:59:38.997Z,5.80
2023-04-30T08:02:06.964Z,6.10
2023-04-30T08:04:36.422Z,6.20
2023-04-30T08:07:04.616Z,6.23
2023-04-30T08:09:32.777Z,5.93
2023-04-30T08:12:01.914Z,6.53
2023-04-30T08:14:29.843Z,5.53
2023-04-30T08:16:59.472Z,5.20
2023-04-30T08:19:27.429Z,6.07
2023-04-30T08:21:57.493Z,5.30
2023-04-30T08:24:25.536Z,5.63
2023-04-30T08:26:54.795Z,6.17
2023-04-30T08:29:22.813Z,5.20
2023-04-30T08:31:50.769Z,5.27
2023-04-30T08:34:18.788Z,4.30
2023-04-30T08:36:46.717Z,4.20
2023-04-30T08:39:15.953Z,4.20
2023-04-30T08:41:51.448Z,4.17
2023-04-30T08:44:22.869Z,4.33
2023-04-30T08:46:54.572Z,3.93
2023-04-30T08:49:24.906Z,4.03
2023-04-30T08:51:53.505Z,4.30
2023-04-30T08:54:25.521Z,3.50
2023-04-30T08:56:53.478Z,3.90
2023-04-30T08:59:21.447Z,3.40
2023-04-30T09:01:51.231Z,3.40
2023-04-30T09:04:20.980Z,3.60
2023-04-30T09:06:48.981Z,2.87
2023-04-30T09:09:17.579Z,2.70
2023-04-30T09:11:46.833Z,3.07
2023-04-30T09:14:15.078Z,3.17
2023-04-30T09:16:47.676Z,2.80
2023-04-30T09:19:25.878Z,3.43
2023-04-30T09:21:53.908Z,2.83
2023-04-30T09:24:21.949Z,2.87
2023-04-30T09:26:51.737Z,2.83
2023-04-30T09:29:19.694Z,2.80
2023-04-30T09:31:48.435Z,2.10
2023-04-30T09:34:16.577Z,2.43
2023-04-30T09:36:55.085Z,2.33
2023-04-30T09:39:23.348Z,2.20
2023-04-30T09:41:53.073Z,2.43
2023-04-30T09:44:31.409Z,2.50
2023-04-30T09:47:00.157Z,2.40
2023-04-30T09:49:29.709Z,2.40
2023-04-30T09:51:57.929Z,2.40
2023-04-30T09:54:27.879Z,2.40
2023-04-30T09:56:58.999Z,2.37
2023-04-30T09:59:31.704Z,2.40
2023-04-30T10:02:01.726Z,2.20
2023-04-30T10:04:32.046Z,2.33
2023-04-30T10:07:01.863Z,2.90
2023-04-30T10:09:35.315Z,2.80
2023-04-30T10:12:08.524Z,3.10
2023-04-30T10:14:36.770Z,3.20
2023-04-30T10:17:09.656Z,3.13
2023-04-30T10:19:41.613Z,3.20
2023-04-30T10:22:10.663Z,2.90
2023-04-30T10:24:39.454Z,2.67
2023-04-30T10:27:08.898Z,3.00
2023-04-30T10:29:36.763Z,2.90
2023-04-30T10:32:06.195Z,2.97
2023-04-30T10:34:45.048Z,2.47
2023-04-30T10:37:22.751Z,2.20
2023-04-30T10:39:51.951Z,2.00
2023-04-30T10:42:21.450Z,2.20
2023-04-30T10:44:49.898Z,2.90
2023-04-30T10:47:19.257Z,2.70
2023-04-30T10:49:48.975Z,3.10
2023-04-30T10:52:28.312Z,2.80
2023-04-30T10:54:56.326Z,2.93
2023-04-30T10:57:30.732Z,2.77
2023-04-30T11:00:19.823Z,3.40
2023-04-30T11:02:49.776Z,2.97
2023-04-30T11:05:19.612Z,3.17
2023-04-30T11:07:52.023Z,3.00
2023-04-30T11:10:23.295Z,2.90
2023-04-30T11:12:54.260Z,3.10
2023-04-30T11:15:26.035Z,3.03
2023-04-30T11:17:58.908Z,2.67
2023-04-30T11:20:27.448Z,3.00
2023-04-30T11:23:12.314Z,3.00
2023-04-30T11:25:45.692Z,3.10
2023-04-30T11:28:18.011Z,2.70
2023-04-30T11:30:53.779Z,3.17
2023-04-30T11:33:23.049Z,3.10
2023-04-30T11:35:53.003Z,2.90
2023-04-30T11:38:23.021Z,2.67
2023-04-30T11:40:52.412Z,3.00
2023-04-30T11:43:26.069Z,3.43
2023-04-30T11:46:05.633Z,3.30
2023-04-30T11:48:34.403Z,3.17
2023-04-30T11:51:05.606Z,3.13
2023-04-30T11:53:33.793Z,3.00
2023-04-30T11:56:06.318Z,3.20
2023-04-30T11:58:40.196Z,3.20
2023-04-30T12:01:10.971Z,3.37
2023-04-30T12:03:45.154Z,2.80
2023-04-30T12:06:13.754Z,3.10
2023-04-30T12:08:43.585Z,2.80
2023-04-30T12:11:21.668Z,2.63
2023-04-30T12:13:55.349Z,3.43
2023-04-30T12:16:25.146Z,3.03
2023-04-30T12:18:53.305Z,5.70
2023-04-30T12:21:22.808Z,3.63
2023-04-30T12:23:51.032Z,3.20
2023-04-30T12:26:19.155Z,2.93
2023-04-30T12:28:49.683Z,2.77
2023-04-30T12:31:19.776Z,2.87
2023-04-30T12:33:56.346Z,2.77
2023-04-30T12:36:31.582Z,2.50
2023-04-30T12:39:08.783Z,2.50
2023-04-30T12:41:42.865Z,2.40
2023-04-30T12:44:22.120Z,2.70
2023-04-30T12:46:56.398Z,2.57
2023-04-30T12:49:26.007Z,2.70
2023-04-30T12:51:59.802Z,2.77
2023-04-30T12:54:28.821Z,2.40
2023-04-30T12:57:01.274Z,3.03
2023-04-30T12:59:29.405Z,2.67
2023-04-30T13:02:07.970Z,2.73
2023-04-30T13:04:36.029Z,2.60
2023-04-30T13:07:04.533Z,2.90
2023-04-30T13:09:34.003Z,2.60
2023-04-30T13:12:02.150Z,3.10
2023-04-30T13:14:30.314Z,3.10
2023-04-30T13:16:59.805Z,3.07
2023-04-30T13:19:27.786Z,3.07
2023-04-30T13:21:55.676Z,2.87
2023-04-30T13:24:23.625Z,2.60
2023-04-30T13:26:51.706Z,2.80
2023-04-30T13:29:20.911Z,2.60
2023-04-30T13:31:49.913Z,3.10
2023-04-30T13:34:19.195Z,2.80
2023-04-30T13:36:47.707Z,2.70
2023-04-30T13:39:15.692Z,2.67
2023-04-30T13:41:43.732Z,2.33
2023-04-30T13:44:12.547Z,2.47
2023-04-30T13:46:40.533Z,2.57
2023-04-30T13:49:08.965Z,2.70
2023-04-30T13:51:38.268Z,2.53
2023-04-30T13:54:06.364Z,2.67
2023-04-30T13:56:34.284Z,3.03
2023-04-30T13:59:02.976Z,2.60
2023-04-30T14:01:33.792Z,2.37
2023-04-30T14:04:02.033Z,2.63
2023-04-30T14:06:30.483Z,2.10
2023-04-30T14:08:59.812Z,2.40
2023-04-30T14:11:27.920Z,2.20
2023-04-30T14:13:55.914Z,2.37
2023-04-30T14:16:23.826Z,2.23
2023-04-30T14:18:51.978Z,2.23
2023-04-30T14:21:19.946Z,2.50
2023-04-30T14:23:47.922Z,2.37
2023-04-30T14:26:17.171Z,2.67
2023-04-30T14:28:46.907Z,2.50
2023-04-30T14:31:15.041Z,2.30
2023-04-30T14:33:42.912Z,2.20
2023-04-30T14:36:11.128Z,2.23
2023-04-30T14:38:39.202Z,2.60
2023-04-30T14:41:07.240Z,2.53
2023-04-30T14:43:36.672Z,2.73
2023-04-30T14:46:04.822Z,2.50
2023-04-30T14:48:32.780Z,2.50
2023-04-30T14:51:01.232Z,3.10
2023-04-30T14:53:29.260Z,3.37
2023-04-30T14:55:57.320Z,2.77
2023-04-30T14:58:25.667Z,2.43
2023-04-30T15:00:55.031Z,2.70
2023-04-30T15:03:23.250Z,2.47
2023-04-30T15:05:51.661Z,2.80
2023-04-30T15:08:19.645Z,2.60
2023-04-30T15:10:47.607Z,2.10
2023-04-30T15:13:15.548Z,2.50
2023-04-30T15:15:43.516Z,2.70
2023-04-30T15:18:13.953Z,2.73
2023-04-30T15:20:42.135Z,2.53
2023-04-30T15:23:10.852Z,2.47
2023-04-30T15:25:39.344Z,2.23
2023-04-30T15:28:07.228Z,2.70
2023-04-30T15:30:35.174Z,2.43
2023-04-30T15:33:03.411Z,2.37
2023-04-30T15:35:32.642Z,2.10
2023-04-30T15:38:00.600Z,2.30
2023-04-30T15:40:28.614Z,2.43
2023-04-30T15:42:56.771Z,2.17
2023-04-30T15:45:25.320Z,2.30
2023-04-30T15:47:53.606Z,2.63
2023-04-30T15:50:21.735Z,2.23
2023-04-30T15:52:51.188Z,2.43
2023-04-30T15:55:19.148Z,2.40
2023-04-30T15:57:46.994Z,3.53
2023-04-30T16:00:16.115Z,3.50
2023-04-30T16:02:44.176Z,2.50
2023-04-30T16:05:12.166Z,3.07
2023-04-30T16:07:42.438Z,3.23
2023-04-30T16:10:13.413Z,2.60
2023-04-30T16:12:41.381Z,2.77
2023-04-30T16:15:10.864Z,2.57
2023-04-30T16:17:39.080Z,2.50
2023-04-30T16:20:08.527Z,2.20
2023-04-30T16:22:37.278Z,2.67
2023-04-30T16:25:07.634Z,2.50
2023-04-30T16:27:37.513Z,2.67
2023-04-30T16:30:06.710Z,3.70
2023-04-30T16:32:34.790Z,2.70
2023-04-30T16:35:02.761Z,2.80
2023-04-30T16:37:31.086Z,2.83
2023-04-30T16:39:59.090Z,2.50
2023-04-30T16:42:27.952Z,3.30
2023-04-30T16:44:57.208Z,2.80
2023-04-30T16:47:25.203Z,3.10
2023-04-30T16:49:53.624Z,2.33
2023-04-30T16:52:21.793Z,2.40
2023-04-30T16:54:49.630Z,3.07
2023-04-30T16:57:17.667Z,2.60
2023-04-30T16:59:46.764Z,2.50
2023-04-30T17:02:16.248Z,2.70
2023-04-30T17:04:44.493Z,2.60
2023-04-30T17:07:12.651Z,2.90
2023-04-30T17:09:41.638Z,3.07
2023-04-30T17:12:09.535Z,2.43
2023-04-30T17:14:37.436Z,2.80
2023-04-30T17:17:05.293Z,2.60
2023-04-30T17:19:34.630Z,2.57
2023-04-30T17:22:02.678Z,2.47
2023-04-30T17:24:30.681Z,2.20
2023-04-30T17:26:59.384Z,2.40
2023-04-30T17:29:27.353Z,2.17
2023-04-30T17:31:55.835Z,2.70
2023-04-30T17:34:23.911Z,2.47
2023-04-30T17:36:53.164Z,3.10
2023-04-30T17:39:21.149Z,2.90
2023-04-30T17:41:49.244Z,2.73
2023-04-30T17:44:17.171Z,2.80
2023-04-30T17:46:45.552Z,2.70
2023-04-30T17:49:13.491Z,2.53
2023-04-30T17:51:41.432Z,3.00
2023-04-30T17:54:10.733Z,3.10
2023-04-30T17:56:38.795Z,2.63
2023-04-30T17:59:07.559Z,2.63
2023-04-30T18:01:35.858Z,2.80
2023-04-30T18:04:03.964Z,2.80
2023-04-30T18:06:32.047Z,3.03
2023-04-30T18:09:01.332Z,2.83
2023-04-30T18:11:30.821Z,2.90
2023-04-30T18:13:58.933Z,3.00
2023-04-30T18:16:27.008Z,2.70
2023-04-30T18:18:54.963Z,2.57
2023-04-30T18:21:22.949Z,3.10
2023-04-30T18:23:51.227Z,3.03
2023-04-30T18:26:21.780Z,2.93
2023-04-30T18:28:51.875Z,2.90
2023-04-30T18:31:19.819Z,2.80
2023-04-30T18:33:48.127Z,2.40
2023-04-30T18:36:16.266Z,4.70
2023-04-30T18:38:44.581Z,3.37
2023-04-30T18:41:12.548Z,3.70
2023-04-30T18:43:42.543Z,3.33
2023-04-30T18:46:11.827Z,3.70
2023-04-30T18:48:39.729Z,3.20
2023-04-30T18:51:07.937Z,2.90
2023-04-30T18:53:36.689Z,3.17
2023-04-30T18:56:04.602Z,3.50
2023-04-30T18:58:32.530Z,3.50
2023-04-30T19:01:00.505Z,3.07
2023-04-30T19:03:30.426Z,3.50
2023-04-30T19:05:58.606Z,3.07
2023-04-30T19:08:26.711Z,3.47
2023-04-30T19:10:55.836Z,3.13
2023-04-30T19:13:24.103Z,3.23
2023-04-30T19:15:53.641Z,3.40
2023-04-30T19:18:24.393Z,3.30
2023-04-30T19:20:59.876Z,3.63
2023-04-30T19:23:30.190Z,3.60
2023-04-30T19:25:58.105Z,3.73
2023-04-30T19:28:26.479Z,3.60
2023-04-30T19:30:55.147Z,3.70
2023-04-30T19:33:23.360Z,3.50
2023-04-30T19:35:53.288Z,3.73
2023-04-30T19:38:22.915Z,4.30
2023-04-30T19:40:51.987Z,3.97
2023-04-30T19:43:20.213Z,3.47
2023-04-30T19:45:51.355Z,4.00
2023-04-30T19:48:19.436Z,4.13
2023-04-30T19:50:47.585Z,3.40
2023-04-30T19:53:16.818Z,4.33
2023-04-30T19:55:47.002Z,3.60
2023-04-30T19:58:15.172Z,3.57
2023-04-30T20:00:44.970Z,3.37
2023-04-30T20:03:14.194Z,3.60
2023-04-30T20:05:42.696Z,3.63
2023-04-30T20:08:10.736Z,3.80
2023-04-30T20:10:40.940Z,3.83
2023-04-30T20:13:10.185Z,3.83
2023-04-30T20:15:38.119Z,3.70
2023-04-30T20:18:06.544Z,3.97
2023-04-30T20:20:34.579Z,3.50
2023-04-30T20:23:13.913Z,3.77
2023-04-30T20:25:45.107Z,3.27
2023-04-30T20:28:15.582Z,3.60
2023-04-30T20:30:43.996Z,4.10
2023-04-30T20:33:12.449Z,3.93
2023-04-30T20:35:41.452Z,3.70
2023-04-30T20:38:09.443Z,3.87
2023-04-30T20:40:40.071Z,3.80
2023-04-30T20:43:08.636Z,4.23
2023-04-30T20:45:37.917Z,3.90
2023-04-30T20:48:06.771Z,4.03
2023-04-30T20:50:34.847Z,3.93
2023-04-30T20:53:02.779Z,4.13
2023-04-30T20:55:30.978Z,3.70
2023-04-30T20:57:58.861Z,4.30
2023-04-30T21:00:27.628Z,3.87
2023-04-30T21:02:57.027Z,4.30
2023-04-30T21:05:24.973Z,4.10
2023-04-30T21:07:53.258Z,4.50
2023-04-30T21:10:21.647Z,4.53
2023-04-30T21:12:49.622Z,5.03
2023-04-30T21:15:17.724Z,4.17
2023-04-30T21:17:45.691Z,4.70
2023-04-30T21:20:15.358Z,4.43
2023-04-30T21:22:43.271Z,4.73
2023-04-30T21:25:12.223Z,4.43
2023-04-30T21:27:40.371Z,4.23
2023-04-30T21:30:10.263Z,4.20
2023-04-30T21:32:38.238Z,4.43
2023-04-30T21:35:06.943Z,4.67
2023-04-30T21:37:36.353Z,4.60
2023-04-30T21:40:04.740Z,4.17
2023-04-30T21:42:33.715Z,4.83
2023-04-30T21:45:01.584Z,5.10
2023-04-30T21:47:30.394Z,4.70
2023-04-30T21:49:59.358Z,4.70
2023-04-30T21:52:27.490Z,4.40
2023-04-30T21:54:56.725Z,4.47
2023-04-30T21:57:24.797Z,5.23
2023-04-30T21:59:52.745Z,5.07
2023-04-30T22:02:24.271Z,4.53
2023-04-30T22:04:53.365Z,4.37
2023-04-30T22:07:21.464Z,4.43
2023-04-30T22:09:49.464Z,5.73
2023-04-30T22:12:21.284Z,5.03
2023-04-30T22:14:50.150Z,4.83
2023-04-30T22:17:18.018Z,4.90
2023-04-30T22:19:45.990Z,4.37
2023-04-30T22:22:13.881Z,4.30
2023-04-30T22:24:41.986Z,4.30
2023-04-30T22:27:09.842Z,4.83
2023-04-30T22:29:39.126Z,5.17
2023-04-30T22:32:07.389Z,5.60
2023-04-30T22:34:38.315Z,4.93
2023-04-30T22:37:06.412Z,4.90
2023-04-30T22:39:34.378Z,6.00
2023-04-30T22:42:02.608Z,4.90
2023-04-30T22:44:31.074Z,4.97
2023-04-30T22:47:00.484Z,5.27
2023-04-30T22:49:31.930Z,4.77
2023-04-30T22:52:00.353Z,5.00
2023-04-30T22:54:28.302Z,4.60
2023-04-30T22:56:56.644Z,4.83
2023-04-30T22:59:24.539Z,4.80
2023-04-30T23:01:52.496Z,4.73
2023-04-30T23:04:21.908Z,4.93
2023-04-30T23:06:49.897Z,4.63
2023-04-30T23:09:17.915Z,4.80
2023-04-30T23:11:46.005Z,4.70
2023-04-30T23:14:13.920Z,4.70
2023-04-30T23:16:42.774Z,4.80
2023-04-30T23:19:11.766Z,4.57
2023-04-30T23:21:40.979Z,5.07
2023-04-30T23:24:08.953Z,4.77
2023-04-30T23:26:37.007Z,4.47
2023-04-30T23:29:05.005Z,4.80
2023-04-30T23:31:33.024Z,4.40
2023-04-30T23:34:01.126Z,4.83
2023-04-30T23:36:29.038Z,5.13
2023-04-30T23:38:58.615Z,5.03
2023-04-30T23:41:27.055Z,4.73
2023-04-30T23:43:55.024Z,4.80
2023-04-30T23:46:23.326Z,5.17
2023-04-30T23:48:51.841Z,4.90
2023-04-30T23:51:21.442Z,5.20
2023-04-30T23:53:49.412Z,4.80
2023-04-30T23:56:18.713Z,5.00
2023-04-30T23:58:46.610Z,4.73
